createdAt,value
2023-02-03T00:00:08.143Z,12.15
2023-02-03T00:02:41.618Z,13.25
2023-02-03T00:05:09.268Z,8.07
2023-02-03T00:07:37.599Z,10.90
2023-02-03T00:10:05.111Z,13.55
2023-02-03T00:12:32.365Z,8.55
2023-02-03T00:14:59.449Z,10.13
2023-02-03T00:17:26.526Z,6.15
2023-02-03T00:19:53.777Z,9.00
2023-02-03T00:22:20.869Z,10.68
2023-02-03T00:24:47.936Z,9.20
2023-02-03T00:27:15.065Z,16.45
2023-02-03T00:29:42.136Z,11.65
2023-02-03T00:32:09.427Z,9.10
2023-02-03T00:34:37.402Z,10.50
2023-02-03T00:37:04.537Z,7.95
2023-02-03T00:39:31.624Z,10.75
2023-02-03T00:41:58.747Z,12.45
2023-02-03T00:44:25.934Z,10.15
2023-02-03T00:46:53.019Z,10.75
2023-02-03T00:49:20.160Z,12.07
2023-02-03T00:51:47.233Z,10.82
2023-02-03T00:54:14.600Z,9.07
2023-02-03T00:56:41.855Z,10.90
2023-02-03T00:59:08.963Z,11.80
2023-02-03T01:01:36.562Z,8.68
2023-02-03T01:04:03.828Z,11.88
2023-02-03T01:06:30.919Z,15.05
2023-02-03T01:08:57.985Z,8.07
2023-02-03T01:11:27.147Z,11.75
2023-02-03T01:13:55.074Z,12.88
2023-02-03T01:16:23.430Z,14.02
2023-02-03T01:18:51.739Z,11.20
2023-02-03T01:21:20.290Z,9.98
2023-02-03T01:23:47.409Z,8.88
2023-02-03T01:26:15.916Z,13.05
2023-02-03T01:28:43.085Z,12.13
2023-02-03T01:31:12.091Z,11.15
2023-02-03T01:33:40.901Z,11.63
2023-02-03T01:36:09.312Z,9.85
2023-02-03T01:38:37.040Z,15.50
2023-02-03T01:41:04.707Z,7.40
2023-02-03T01:43:39.399Z,8.10
2023-02-03T01:46:15.332Z,10.43
2023-02-03T01:48:42.618Z,9.10
2023-02-03T01:51:09.743Z,9.35
2023-02-03T01:53:37.647Z,8.02
2023-02-03T01:56:05.804Z,8.00
2023-02-03T01:58:35.786Z,7.57
2023-02-03T02:01:02.986Z,8.82
2023-02-03T02:03:42.456Z,8.23
2023-02-03T02:06:11.213Z,7.13
2023-02-03T02:08:41.935Z,14.20
2023-02-03T02:11:09.050Z,5.45
2023-02-03T02:13:37.116Z,10.07
2023-02-03T02:16:08.761Z,9.32
2023-02-03T02:18:43.069Z,8.23
2023-02-03T02:21:28.289Z,13.02
2023-02-03T02:24:01.296Z,12.07
2023-02-03T02:26:37.255Z,9.95
2023-02-03T02:29:20.625Z,14.32
2023-02-03T02:32:06.133Z,9.88
2023-02-03T02:34:59.289Z,9.15
2023-02-03T02:37:35.148Z,8.65
2023-02-03T02:40:23.888Z,7.97
2023-02-03T02:43:03.650Z,6.82
2023-02-03T02:45:48.790Z,10.68
2023-02-03T02:48:29.039Z,8.80
2023-02-03T02:50:58.683Z,6.10
2023-02-03T02:53:27.480Z,5.85
2023-02-03T02:55:57.079Z,6.68
2023-02-03T02:58:24.613Z,8.90
2023-02-03T03:00:51.710Z,5.50
2023-02-03T03:03:22.925Z,11.90
2023-02-03T03:06:10.281Z,6.47
2023-02-03T03:08:42.136Z,4.97
2023-02-03T03:11:10.985Z,3.78
2023-02-03T03:13:41.407Z,9.98
2023-02-03T03:16:10.075Z,5.13
2023-02-03T03:18:45.196Z,9.65
2023-02-03T03:21:16.485Z,7.13
2023-02-03T03:23:46.198Z,10.50
2023-02-03T03:26:15.578Z,7.78
2023-02-03T03:28:53.325Z,8.43
2023-02-03T03:31:21.183Z,8.20
2023-02-03T03:33:48.903Z,8.18
2023-02-03T03:36:30.284Z,8.20
2023-02-03T03:39:04.713Z,8.18
2023-02-03T03:41:38.695Z,5.13
2023-02-03T03:44:07.197Z,5.18
2023-02-03T03:46:52.665Z,5.85
2023-02-03T03:49:21.124Z,6.43
2023-02-03T03:51:49.603Z,6.80
2023-02-03T03:54:18.409Z,7.07
2023-02-03T03:56:52.399Z,9.40
2023-02-03T03:59:20.932Z,5.57
2023-02-03T04:01:49.181Z,5.22
2023-02-03T04:04:17.270Z,7.10
2023-02-03T04:06:44.351Z,5.63
2023-02-03T04:09:11.577Z,9.32
2023-02-03T04:11:57.319Z,9.25
2023-02-03T04:14:24.402Z,5.75
2023-02-03T04:16:51.484Z,7.22
2023-02-03T04:19:18.606Z,4.07
2023-02-03T04:21:45.827Z,3.65
2023-02-03T04:24:13.026Z,5.28
2023-02-03T04:26:41.315Z,6.50
2023-02-03T04:29:08.644Z,5.20
2023-02-03T04:31:35.805Z,10.30
2023-02-03T04:34:02.964Z,6.28
2023-02-03T04:36:30.031Z,7.05
2023-02-03T04:38:57.091Z,3.13
2023-02-03T04:41:24.160Z,4.13
2023-02-03T04:43:51.249Z,6.65
2023-02-03T04:46:18.946Z,5.47
2023-02-03T04:48:46.219Z,5.00
2023-02-03T04:51:13.314Z,7.30
2023-02-03T04:53:40.543Z,5.75
2023-02-03T04:56:07.790Z,8.40
2023-02-03T04:58:34.890Z,5.95
2023-02-03T05:01:06.914Z,6.22
2023-02-03T05:03:34.097Z,4.90
2023-02-03T05:06:03.146Z,4.05
2023-02-03T05:08:30.700Z,3.38
2023-02-03T05:10:59.175Z,4.97
2023-02-03T05:13:28.042Z,6.07
2023-02-03T05:15:55.142Z,6.70
2023-02-03T05:18:22.230Z,8.57
2023-02-03T05:20:49.354Z,10.23
2023-02-03T05:23:16.448Z,5.30
2023-02-03T05:25:44.578Z,9.55
2023-02-03T05:28:11.695Z,9.95
2023-02-03T05:30:38.881Z,12.00
2023-02-03T05:33:06.031Z,10.10
2023-02-03T05:35:33.392Z,8.95
2023-02-03T05:38:00.483Z,5.18
2023-02-03T05:40:46.307Z,10.45
2023-02-03T05:43:13.699Z,8.23
2023-02-03T05:45:40.821Z,10.02
2023-02-03T05:48:07.993Z,8.68
2023-02-03T05:50:38.193Z,6.70
2023-02-03T05:55:35.659Z,5.75
2023-02-03T05:58:02.765Z,8.07
2023-02-03T06:00:30.175Z,9.63
2023-02-03T06:02:58.660Z,4.05
2023-02-03T06:05:26.310Z,5.35
2023-02-03T06:07:53.419Z,9.65
2023-02-03T06:10:20.978Z,7.68
2023-02-03T06:12:48.053Z,8.48
2023-02-03T06:15:15.345Z,7.07
2023-02-03T06:17:49.293Z,7.90
2023-02-03T06:20:17.618Z,7.13
2023-02-03T06:22:44.731Z,10.80
2023-02-03T06:25:14.259Z,8.70
2023-02-03T06:27:42.126Z,6.18
2023-02-03T06:30:09.612Z,10.45
2023-02-03T06:32:36.691Z,10.32
2023-02-03T06:35:04.046Z,7.47
2023-02-03T06:37:31.151Z,9.75
2023-02-03T06:39:58.220Z,11.55
2023-02-03T06:42:25.366Z,7.90
2023-02-03T06:44:52.488Z,6.40
2023-02-03T06:47:19.546Z,7.07
2023-02-03T06:49:46.616Z,11.95
2023-02-03T06:52:14.379Z,10.00
2023-02-03T06:54:41.621Z,11.98
2023-02-03T06:57:08.716Z,5.35
2023-02-03T06:59:35.800Z,8.93
2023-02-03T07:02:02.873Z,3.65
2023-02-03T07:04:33.067Z,8.02
2023-02-03T07:07:00.136Z,8.43
2023-02-03T07:09:27.227Z,5.55
2023-02-03T07:11:54.313Z,6.43
2023-02-03T07:14:21.401Z,9.70
2023-02-03T07:16:48.889Z,8.93
2023-02-03T07:19:16.132Z,8.00
2023-02-03T07:21:43.219Z,5.05
2023-02-03T07:24:10.292Z,8.63
2023-02-03T07:26:37.387Z,9.32
2023-02-03T07:29:04.516Z,4.20
2023-02-03T07:31:31.952Z,9.02
2023-02-03T07:34:01.004Z,10.23
2023-02-03T07:36:28.833Z,8.30
2023-02-03T07:38:56.176Z,6.57
2023-02-03T07:41:23.491Z,10.00
2023-02-03T07:43:50.681Z,8.68
2023-02-03T07:46:17.807Z,12.30
2023-02-03T07:48:44.977Z,10.50
2023-02-03T07:51:12.053Z,7.47
2023-02-03T07:53:39.148Z,8.00
2023-02-03T07:56:06.413Z,6.40
2023-02-03T07:58:33.525Z,9.02
2023-02-03T08:01:00.920Z,6.38
2023-02-03T08:03:28.033Z,9.90
2023-02-03T08:05:55.179Z,7.13
2023-02-03T08:08:22.275Z,7.00
2023-02-03T08:10:49.361Z,5.25
2023-02-03T08:13:16.481Z,9.00
2023-02-03T08:15:43.664Z,10.10
2023-02-03T08:18:12.612Z,9.02
2023-02-03T08:20:39.731Z,14.30
2023-02-03T08:23:06.853Z,8.38
2023-02-03T08:25:33.991Z,9.38
2023-02-03T08:28:01.148Z,9.55
2023-02-03T08:30:28.842Z,9.77
2023-02-03T08:32:56.192Z,10.38
2023-02-03T08:35:23.389Z,7.18
2023-02-03T08:37:50.471Z,5.07
2023-02-03T08:40:18.372Z,8.07
2023-02-03T08:42:45.459Z,12.25
2023-02-03T08:45:12.782Z,11.27
2023-02-03T08:47:40.065Z,9.05
2023-02-03T08:50:08.050Z,10.30
2023-02-03T08:52:35.421Z,15.93
2023-02-03T08:55:02.558Z,9.27
2023-02-03T08:57:33.081Z,6.65
2023-02-03T09:00:00.182Z,12.45
2023-02-03T09:02:27.261Z,10.18
2023-02-03T09:04:54.490Z,8.18
2023-02-03T09:07:21.970Z,12.77
2023-02-03T09:09:49.137Z,11.90
2023-02-03T09:12:16.333Z,9.98
2023-02-03T09:14:43.566Z,12.82
2023-02-03T09:17:11.125Z,12.45
2023-02-03T09:19:38.199Z,13.80
2023-02-03T09:22:05.938Z,9.55
2023-02-03T09:24:33.570Z,6.95
2023-02-03T09:27:01.430Z,7.47
2023-02-03T09:29:28.545Z,10.93
2023-02-03T09:31:55.772Z,9.85
2023-02-03T09:34:23.103Z,8.80
2023-02-03T09:36:51.403Z,13.65
2023-02-03T09:39:18.603Z,9.98
2023-02-03T09:42:01.546Z,7.72
2023-02-03T09:44:36.647Z,6.43
2023-02-03T09:47:08.210Z,16.77
2023-02-03T09:49:41.123Z,7.65
2023-02-03T09:52:20.726Z,8.75
2023-02-03T09:54:50.835Z,9.82
2023-02-03T09:57:25.625Z,9.68
2023-02-03T09:59:54.445Z,10.65
2023-02-03T10:02:34.291Z,6.55
2023-02-03T10:05:19.048Z,5.78
2023-02-03T10:07:52.467Z,7.07
2023-02-03T10:10:30.329Z,11.93
2023-02-03T10:13:07.307Z,13.85
2023-02-03T10:15:56.789Z,9.48
2023-02-03T10:18:26.132Z,9.88
2023-02-03T10:20:58.772Z,6.65
2023-02-03T10:23:25.881Z,11.35
2023-02-03T10:25:57.355Z,6.95
2023-02-03T10:28:25.937Z,9.23
2023-02-03T10:30:56.710Z,9.65
2023-02-03T10:33:27.945Z,5.50
2023-02-03T10:35:59.265Z,8.82
2023-02-03T10:38:35.660Z,7.97
2023-02-03T10:41:03.322Z,12.85
2023-02-03T10:43:49.924Z,9.77
2023-02-03T10:46:17.928Z,5.97
2023-02-03T10:48:45.107Z,12.38
2023-02-03T10:51:18.073Z,10.63
2023-02-03T10:53:46.204Z,7.55
2023-02-03T10:56:14.499Z,7.53
2023-02-03T10:58:48.437Z,8.27
2023-02-03T11:01:19.718Z,8.00
2023-02-03T11:04:06.269Z,5.03
2023-02-03T11:06:36.283Z,5.80
2023-02-03T11:09:22.233Z,6.85
2023-02-03T11:11:49.318Z,7.97
2023-02-03T11:14:17.469Z,8.15
2023-02-03T11:16:47.185Z,9.45
2023-02-03T11:19:22.241Z,6.75
2023-02-03T11:21:50.665Z,9.50
2023-02-03T11:24:21.861Z,9.93
2023-02-03T11:26:55.252Z,8.65
2023-02-03T11:29:29.804Z,7.70
2023-02-03T11:31:58.587Z,13.15
2023-02-03T11:34:34.416Z,10.77
2023-02-03T11:37:27.321Z,9.15
2023-02-03T11:39:58.088Z,8.43
2023-02-03T11:42:25.428Z,12.25
2023-02-03T11:44:53.861Z,7.97
2023-02-03T11:47:23.674Z,7.40
2023-02-03T11:50:29.824Z,7.20
2023-02-03T11:53:04.178Z,6.50
2023-02-03T11:55:41.352Z,9.13
2023-02-03T11:58:15.891Z,11.57
2023-02-03T12:00:49.159Z,10.40
2023-02-03T12:03:26.713Z,11.05
2023-02-03T12:05:59.874Z,8.68
2023-02-03T12:11:08.617Z,4.35
2023-02-03T12:14:11.813Z,7.63
2023-02-03T12:16:45.689Z,8.40
2023-02-03T12:19:30.874Z,14.50
2023-02-03T12:22:12.385Z,9.00
2023-02-03T12:24:48.192Z,9.02
2023-02-03T12:27:15.323Z,9.60
2023-02-03T12:29:44.692Z,11.30
2023-02-03T12:32:14.553Z,12.77
2023-02-03T12:34:47.479Z,13.48
2023-02-03T12:37:17.531Z,10.43
2023-02-03T12:39:44.771Z,10.20
2023-02-03T12:42:17.813Z,7.05
2023-02-03T12:44:50.806Z,12.15
2023-02-03T12:47:17.868Z,15.25
2023-02-03T12:49:44.986Z,16.10
2023-02-03T12:52:18.567Z,11.55
2023-02-03T12:54:50.681Z,26.77
2023-02-03T12:57:21.272Z,9.13
2023-02-03T12:59:58.526Z,8.88
2023-02-03T13:02:27.989Z,14.00
2023-02-03T13:05:05.037Z,8.60
2023-02-03T13:07:44.275Z,12.57
2023-02-03T13:10:27.645Z,7.20
2023-02-03T13:12:57.240Z,9.73
2023-02-03T13:15:36.498Z,13.27
2023-02-03T13:18:15.497Z,10.88
2023-02-03T13:20:42.624Z,18.55
2023-02-03T13:23:14.319Z,13.80
2023-02-03T13:26:18.460Z,13.23
2023-02-03T13:29:13.487Z,16.50
2023-02-03T13:32:07.314Z,11.90
2023-02-03T13:34:44.478Z,14.50
2023-02-03T13:37:11.529Z,14.75
2023-02-03T13:39:54.359Z,15.32
2023-02-03T13:42:23.966Z,10.20
2023-02-03T13:45:09.859Z,20.52
2023-02-03T13:47:36.983Z,14.05
2023-02-03T13:50:08.504Z,14.80
2023-02-03T13:53:20.786Z,18.33
2023-02-03T13:55:55.898Z,16.02
2023-02-03T13:58:23.018Z,10.77
2023-02-03T14:00:50.130Z,17.42
2023-02-03T14:03:26.263Z,16.52
2023-02-03T14:05:54.886Z,14.35
2023-02-03T14:08:28.261Z,17.25
2023-02-03T14:11:32.657Z,13.13
2023-02-03T14:14:09.104Z,21.40
2023-02-03T14:16:36.279Z,20.15
2023-02-03T14:19:03.880Z,20.30
2023-02-03T14:21:39.043Z,15.10
2023-02-03T14:24:09.133Z,17.55
2023-02-03T14:26:38.596Z,19.00
2023-02-03T14:29:06.710Z,23.90
2023-02-03T14:31:52.599Z,16.17
2023-02-03T14:36:55.862Z,17.60
2023-02-03T14:39:41.547Z,21.35
2023-02-03T14:42:12.304Z,18.27
2023-02-03T14:44:48.959Z,15.80
2023-02-03T14:47:31.150Z,18.98
2023-02-03T14:50:19.689Z,18.30
2023-02-03T14:52:59.051Z,24.15
2023-02-03T14:55:26.494Z,17.42
2023-02-03T14:57:55.818Z,20.25
2023-02-03T15:00:24.009Z,15.68
2023-02-03T15:03:11.955Z,18.20
2023-02-03T15:05:39.157Z,20.05
2023-02-03T15:08:26.234Z,9.63
2023-02-03T15:10:53.387Z,20.58
2023-02-03T15:13:30.867Z,16.13
2023-02-03T15:16:03.211Z,18.25
2023-02-03T15:18:40.806Z,21.52
2023-02-03T15:21:15.223Z,20.98
2023-02-03T15:23:47.825Z,16.63
2023-02-03T15:26:19.924Z,14.60
2023-02-03T15:28:57.120Z,19.75
2023-02-03T15:31:36.601Z,19.80
2023-02-03T15:34:10.174Z,22.63
2023-02-03T15:36:44.548Z,15.68
2023-02-03T15:39:17.671Z,18.02
2023-02-03T15:44:23.367Z,17.02
2023-02-03T15:46:51.785Z,20.13
2023-02-03T15:49:26.362Z,20.30
2023-02-03T15:51:57.961Z,15.77
2023-02-03T15:54:30.971Z,15.20
2023-02-03T15:57:00.307Z,14.43
2023-02-03T15:59:32.771Z,20.30
2023-02-03T16:02:00.982Z,16.50
2023-02-03T16:04:28.121Z,17.08
2023-02-03T16:06:56.178Z,20.27
2023-02-03T16:09:26.013Z,20.77
2023-02-03T16:12:05.965Z,17.08
2023-02-03T16:14:34.608Z,14.80
2023-02-03T16:17:06.217Z,19.98
2023-02-03T16:19:40.144Z,15.07
2023-02-03T16:22:27.179Z,16.38
2023-02-03T16:24:54.410Z,20.73
2023-02-03T16:27:27.744Z,23.75
2023-02-03T16:30:14.583Z,19.73
2023-02-03T16:33:00.633Z,18.02
2023-02-03T16:35:46.768Z,20.65
2023-02-03T16:41:21.675Z,17.80
2023-02-03T16:44:07.675Z,22.80
2023-02-03T16:46:53.515Z,16.10
2023-02-03T16:52:06.595Z,16.88
2023-02-03T16:54:33.733Z,25.42
2023-02-03T16:57:00.918Z,15.45
2023-02-03T16:59:28.006Z,18.60
2023-02-03T17:01:55.187Z,13.30
2023-02-03T17:04:22.273Z,18.40
2023-02-03T17:06:51.206Z,19.98
2023-02-03T17:09:23.422Z,19.67
2023-02-03T17:11:50.520Z,19.83
2023-02-03T17:14:17.680Z,19.15
2023-02-03T17:16:44.905Z,24.17
2023-02-03T17:19:13.052Z,14.82
2023-02-03T17:21:40.173Z,22.90
2023-02-03T17:24:07.617Z,21.35
2023-02-03T17:26:35.100Z,24.60
2023-02-03T17:29:03.568Z,44.00
2023-02-03T17:31:31.310Z,52.95
2023-02-03T17:33:58.899Z,22.13
2023-02-03T17:36:26.500Z,21.38
2023-02-03T17:55:28.859Z,20.75
2023-02-03T17:57:56.537Z,19.30
2023-02-03T18:00:23.865Z,20.35
2023-02-03T18:02:51.871Z,18.92
2023-02-03T18:05:19.240Z,18.58
2023-02-03T18:10:18.535Z,24.67
2023-02-03T18:12:45.609Z,21.55
2023-02-03T18:15:12.790Z,21.63
2023-02-03T18:17:39.861Z,19.05
2023-02-03T18:20:07.195Z,21.73
2023-02-03T18:22:34.563Z,24.75
2023-02-03T18:25:01.703Z,21.83
2023-02-03T18:27:28.811Z,20.38
2023-02-03T18:29:55.865Z,15.55
2023-02-03T18:32:22.991Z,19.85
2023-02-03T18:34:50.065Z,22.45
2023-02-03T18:37:17.193Z,24.55
2023-02-03T18:39:44.481Z,20.90
2023-02-03T18:42:11.625Z,21.73
2023-02-03T18:44:39.508Z,16.70
2023-02-03T18:47:07.538Z,17.27
2023-02-03T18:49:37.794Z,30.95
2023-02-03T18:52:05.264Z,21.08
2023-02-03T18:54:32.382Z,23.98
2023-02-03T18:56:59.761Z,24.27
2023-02-03T18:59:26.999Z,20.65
2023-02-03T19:01:54.211Z,21.23
2023-02-03T19:04:21.374Z,29.02
2023-02-03T19:06:48.551Z,22.77
2023-02-03T19:09:17.836Z,19.60
2023-02-03T19:11:45.101Z,23.23
2023-02-03T19:14:13.514Z,24.90
2023-02-03T19:16:40.851Z,21.52
2023-02-03T19:19:07.990Z,22.25
2023-02-03T19:21:35.248Z,21.75
2023-02-03T19:24:02.333Z,35.35
2023-02-03T19:26:29.518Z,32.35
2023-02-03T19:28:56.724Z,21.13
2023-02-03T19:31:24.014Z,27.20
2023-02-03T19:33:51.380Z,18.02
2023-02-03T19:36:18.669Z,18.33
2023-02-03T19:38:45.799Z,23.38
2023-02-03T19:41:13.038Z,21.63
2023-02-03T19:43:40.376Z,16.67
2023-02-03T19:46:08.181Z,18.95
2023-02-03T19:48:35.531Z,27.90
2023-02-03T19:51:02.683Z,44.10
2023-02-03T19:53:29.808Z,56.25
2023-02-03T19:55:57.011Z,39.30
2023-02-03T19:58:24.132Z,25.60
2023-02-03T20:00:51.489Z,26.63
2023-02-03T20:03:19.648Z,19.95
2023-02-03T20:05:47.118Z,18.17
2023-02-03T20:08:15.610Z,19.23
2023-02-03T20:10:45.159Z,19.20
2023-02-03T20:13:13.163Z,42.65
2023-02-03T20:15:40.289Z,30.35
2023-02-03T20:18:07.734Z,29.77
2023-02-03T20:20:35.066Z,22.20
2023-02-03T20:23:02.247Z,23.95
2023-02-03T20:25:29.488Z,23.08
2023-02-03T20:27:58.124Z,34.35
2023-02-03T20:30:25.278Z,20.73
2023-02-03T20:32:54.517Z,33.17
2023-02-03T20:35:23.576Z,22.90
2023-02-03T20:37:50.759Z,29.33
2023-02-03T20:40:22.168Z,23.60
2023-02-03T20:42:49.647Z,20.50
2023-02-03T20:45:17.598Z,22.08
2023-02-03T20:47:44.912Z,23.55
2023-02-03T20:50:31.443Z,21.92
2023-02-03T20:53:01.651Z,28.17
2023-02-03T20:55:28.822Z,21.02
2023-02-03T20:57:56.797Z,25.02
2023-02-03T21:00:27.716Z,22.00
2023-02-03T21:03:14.233Z,24.35
2023-02-03T21:05:42.492Z,27.80
2023-02-03T21:08:19.897Z,22.80
2023-02-03T21:10:47.912Z,20.52
2023-02-03T21:13:35.888Z,17.10
2023-02-03T21:16:03.505Z,17.80
2023-02-03T21:18:35.153Z,14.65
2023-02-03T21:21:02.502Z,15.68
2023-02-03T21:23:39.919Z,17.15
2023-02-03T21:26:18.943Z,25.98
2023-02-03T21:28:47.509Z,23.63
2023-02-03T21:31:25.930Z,18.83
2023-02-03T21:33:53.572Z,21.10
2023-02-03T21:36:22.395Z,17.65
2023-02-03T21:38:54.939Z,16.02
2023-02-03T21:41:23.683Z,12.05
2023-02-03T21:43:51.782Z,22.67
2023-02-03T21:46:20.612Z,15.63
2023-02-03T21:48:51.520Z,15.38
2023-02-03T21:51:20.655Z,16.58
2023-02-03T21:53:55.586Z,14.75
2023-02-03T21:56:31.252Z,14.35
2023-02-03T21:58:59.820Z,17.08
2023-02-03T22:01:27.955Z,17.48
2023-02-03T22:03:55.951Z,13.85
2023-02-03T22:06:30.137Z,31.73
2023-02-03T22:08:57.949Z,23.73
2023-02-03T22:11:29.170Z,25.88
2023-02-03T22:13:57.219Z,16.67
2023-02-03T22:16:24.391Z,17.85
2023-02-03T22:18:52.019Z,14.98
2023-02-03T22:21:19.454Z,18.50
2023-02-03T22:23:47.084Z,21.48
2023-02-03T22:26:15.509Z,18.83
2023-02-03T22:28:43.148Z,20.67
2023-02-03T22:31:11.397Z,20.05
2023-02-03T22:33:38.547Z,19.17
2023-02-03T22:36:06.585Z,20.08
2023-02-03T22:38:34.351Z,14.10
2023-02-03T22:41:01.524Z,15.82
2023-02-03T22:43:30.859Z,17.88
2023-02-03T22:45:58.411Z,19.42
2023-02-03T22:48:25.798Z,14.93
2023-02-03T22:50:52.957Z,17.77
2023-02-03T22:53:20.237Z,18.50
2023-02-03T22:55:47.383Z,20.70
2023-02-03T22:58:14.524Z,15.93
2023-02-03T23:00:42.025Z,17.13
2023-02-03T23:03:09.379Z,19.77
2023-02-03T23:05:36.582Z,16.50
2023-02-03T23:08:03.788Z,19.67
2023-02-03T23:10:31.528Z,15.45
2023-02-03T23:13:00.658Z,20.00
2023-02-03T23:15:28.417Z,11.52
2023-02-03T23:17:55.767Z,19.83
2023-02-03T23:20:23.453Z,20.83
2023-02-03T23:22:50.727Z,20.25
2023-02-03T23:25:18.150Z,17.77
2023-02-03T23:27:45.421Z,14.63
2023-02-03T23:30:13.064Z,19.02
2023-02-03T23:32:40.240Z,18.55
2023-02-03T23:35:26.344Z,15.35
2023-02-03T23:37:53.465Z,17.10
2023-02-03T23:40:20.759Z,17.67
2023-02-03T23:42:48.021Z,17.27
2023-02-03T23:45:15.493Z,19.33
2023-02-03T23:47:43.367Z,15.07
2023-02-03T23:50:11.622Z,17.75
2023-02-03T23:52:38.903Z,15.77
2023-02-03T23:55:07.240Z,16.63
2023-02-03T23:57:34.415Z,13.88
